sensor_id;sensor_type;location;lat;lon;timestamp;pressure;altitude;pressure_sealevel;temperature;humidity
3082;BME280;1551;51.046;7.010;2022-08-01T00:00:16;100961.47;;;23.46;73.69
3082;BME280;1551;51.046;7.010;2022-08-01T00:03:04;100960.94;;;23.25;73.98
3082;BME280;1551;51.046;7.010;2022-08-01T00:05:53;100957.22;;;23.00;75.19
3082;BME280;1551;51.046;7.010;2022-08-01T00:08:42;100961.44;;;23.16;75.70
3082;BME280;1551;51.046;7.010;2022-08-01T00:11:31;100949.84;;;23.06;75.53
3082;BME280;1551;51.046;7.010;2022-08-01T00:14:20;100953.56;;;23.02;75.73
3082;BME280;1551;51.046;7.010;2022-08-01T00:17:09;100955.91;;;23.07;76.21
3082;BME280;1551;51.046;7.010;2022-08-01T00:19:58;100945.41;;;23.22;75.33
3082;BME280;1551;51.046;7.010;2022-08-01T00:22:47;100951.69;;;23.34;75.11
3082;BME280;1551;51.046;7.010;2022-08-01T00:25:36;100957.25;;;23.44;74.47
3082;BME280;1551;51.046;7.010;2022-08-01T00:28:25;100942.91;;;23.51;73.88
3082;BME280;1551;51.046;7.010;2022-08-01T00:31:14;100948.31;;;23.62;73.06
3082;BME280;1551;51.046;7.010;2022-08-01T00:34:03;100948.97;;;23.51;73.31
3082;BME280;1551;51.046;7.010;2022-08-01T00:36:52;100954.28;;;23.50;73.73
3082;BME280;1551;51.046;7.010;2022-08-01T00:39:41;100950.72;;;23.37;73.87
3082;BME280;1551;51.046;7.010;2022-08-01T00:42:29;100952.63;;;23.33;73.77
3082;BME280;1551;51.046;7.010;2022-08-01T00:45:18;100949.53;;;23.26;73.98
3082;BME280;1551;51.046;7.010;2022-08-01T00:48:08;100951.19;;;23.13;74.28
3082;BME280;1551;51.046;7.010;2022-08-01T00:50:57;100949.22;;;23.17;74.42
3082;BME280;1551;51.046;7.010;2022-08-01T00:53:46;100945.09;;;23.13;74.78
3082;BME280;1551;51.046;7.010;2022-08-01T00:56:35;100948.63;;;23.12;74.36
3082;BME280;1551;51.046;7.010;2022-08-01T00:59:24;100948.47;;;23.15;74.83
3082;BME280;1551;51.046;7.010;2022-08-01T01:02:14;100948.84;;;23.09;74.51
3082;BME280;1551;51.046;7.010;2022-08-01T01:05:03;100951.13;;;22.99;74.09
3082;BME280;1551;51.046;7.010;2022-08-01T01:08:04;100954.53;;;22.86;74.67
3082;BME280;1551;51.046;7.010;2022-08-01T01:11:02;100942.31;;;22.55;75.21
3082;BME280;1551;51.046;7.010;2022-08-01T01:14:01;100953.19;;;22.47;75.79
3082;BME280;1551;51.046;7.010;2022-08-01T01:16:53;100942.25;;;22.41;76.03
3082;BME280;1551;51.046;7.010;2022-08-01T01:19:47;100947.09;;;22.47;75.88
3082;BME280;1551;51.046;7.010;2022-08-01T01:22:50;100946.84;;;22.51;76.14
3082;BME280;1551;51.046;7.010;2022-08-01T01:26:09;100946.59;;;22.56;75.91
3082;BME280;1551;51.046;7.010;2022-08-01T01:29:17;100944.09;;;22.54;75.13
3082;BME280;1551;51.046;7.010;2022-08-01T01:32:11;100946.09;;;22.49;75.38
3082;BME280;1551;51.046;7.010;2022-08-01T01:35:12;100951.28;;;22.67;75.88
3082;BME280;1551;51.046;7.010;2022-08-01T01:38:10;100947.34;;;22.58;74.72
3082;BME280;1551;51.046;7.010;2022-08-01T01:41:03;100953.94;;;22.65;75.30
3082;BME280;1551;51.046;7.010;2022-08-01T01:43:53;100950.06;;;22.56;74.99
3082;BME280;1551;51.046;7.010;2022-08-01T01:46:43;100953.50;;;22.57;75.12
3082;BME280;1551;51.046;7.010;2022-08-01T01:49:33;100951.06;;;22.70;74.98
3082;BME280;1551;51.046;7.010;2022-08-01T01:52:23;100950.97;;;22.55;74.99
3082;BME280;1551;51.046;7.010;2022-08-01T01:55:15;100944.34;;;22.50;75.19
3082;BME280;1551;51.046;7.010;2022-08-01T01:58:06;100951.41;;;22.48;76.17
3082;BME280;1551;51.046;7.010;2022-08-01T02:00:57;100947.88;;;22.49;75.19
3082;BME280;1551;51.046;7.010;2022-08-01T02:03:48;100951.47;;;22.46;75.40
3082;BME280;1551;51.046;7.010;2022-08-01T02:06:38;100951.13;;;22.37;76.36
3082;BME280;1551;51.046;7.010;2022-08-01T02:09:28;100949.22;;;22.25;76.12
3082;BME280;1551;51.046;7.010;2022-08-01T02:12:20;100947.63;;;22.38;76.44
3082;BME280;1551;51.046;7.010;2022-08-01T02:15:11;100946.34;;;22.45;75.41
3082;BME280;1551;51.046;7.010;2022-08-01T02:18:01;100944.91;;;22.39;75.51
3082;BME280;1551;51.046;7.010;2022-08-01T02:20:52;100947.72;;;22.36;75.35
3082;BME280;1551;51.046;7.010;2022-08-01T02:23:43;100940.97;;;22.32;76.03
3082;BME280;1551;51.046;7.010;2022-08-01T02:26:32;100940.66;;;22.38;75.38
3082;BME280;1551;51.046;7.010;2022-08-01T02:29:27;100940.03;;;22.33;75.74
3082;BME280;1551;51.046;7.010;2022-08-01T02:32:36;100940.63;;;22.23;76.01
3082;BME280;1551;51.046;7.010;2022-08-01T02:35:28;100939.19;;;22.33;75.07
3082;BME280;1551;51.046;7.010;2022-08-01T02:38:20;100942.16;;;22.27;75.37
3082;BME280;1551;51.046;7.010;2022-08-01T02:41:13;100937.59;;;22.30;75.39
3082;BME280;1551;51.046;7.010;2022-08-01T02:44:06;100930.28;;;22.37;75.51
3082;BME280;1551;51.046;7.010;2022-08-01T02:46:57;100927.50;;;22.24;75.75
3082;BME280;1551;51.046;7.010;2022-08-01T02:49:51;100942.59;;;22.50;75.52
3082;BME280;1551;51.046;7.010;2022-08-01T02:52:46;100928.94;;;22.30;75.28
3082;BME280;1551;51.046;7.010;2022-08-01T02:55:37;100934.06;;;22.47;75.08
3082;BME280;1551;51.046;7.010;2022-08-01T02:58:27;100926.41;;;22.44;74.90
3082;BME280;1551;51.046;7.010;2022-08-01T03:01:17;100934.75;;;22.50;74.88
3082;BME280;1551;51.046;7.010;2022-08-01T03:04:08;100929.09;;;22.42;74.76
3082;BME280;1551;51.046;7.010;2022-08-01T03:07:00;100928.50;;;22.37;74.77
3082;BME280;1551;51.046;7.010;2022-08-01T03:09:51;100924.91;;;22.24;75.96
3082;BME280;1551;51.046;7.010;2022-08-01T03:12:42;100931.88;;;22.24;76.14
3082;BME280;1551;51.046;7.010;2022-08-01T03:15:35;100933.13;;;22.32;75.94
3082;BME280;1551;51.046;7.010;2022-08-01T03:18:25;100932.88;;;22.37;75.31
3082;BME280;1551;51.046;7.010;2022-08-01T03:21:16;100940.72;;;22.37;74.61
3082;BME280;1551;51.046;7.010;2022-08-01T03:24:07;100944.31;;;22.34;75.63
3082;BME280;1551;51.046;7.010;2022-08-01T03:26:58;100942.97;;;22.27;75.60
3082;BME280;1551;51.046;7.010;2022-08-01T03:29:49;100949.88;;;22.28;76.07
3082;BME280;1551;51.046;7.010;2022-08-01T03:32:39;100950.97;;;22.24;75.26
3082;BME280;1551;51.046;7.010;2022-08-01T03:35:46;100948.19;;;22.27;76.28
3082;BME280;1551;51.046;7.010;2022-08-01T03:38:37;100947.63;;;22.22;75.39
3082;BME280;1551;51.046;7.010;2022-08-01T03:41:32;100942.47;;;22.05;75.99
3082;BME280;1551;51.046;7.010;2022-08-01T03:44:26;100947.16;;;21.99;76.92
3082;BME280;1551;51.046;7.010;2022-08-01T03:47:16;100947.28;;;22.13;76.98
3082;BME280;1551;51.046;7.010;2022-08-01T03:50:07;100952.16;;;22.19;76.91
3082;BME280;1551;51.046;7.010;2022-08-01T03:52:59;100949.88;;;22.13;76.40
3082;BME280;1551;51.046;7.010;2022-08-01T03:55:49;100951.13;;;22.06;77.23
3082;BME280;1551;51.046;7.010;2022-08-01T03:58:39;100961.63;;;22.04;77.64
3082;BME280;1551;51.046;7.010;2022-08-01T04:01:31;100952.25;;;22.17;77.79
3082;BME280;1551;51.046;7.010;2022-08-01T04:04:21;100952.75;;;22.24;76.60
3082;BME280;1551;51.046;7.010;2022-08-01T04:07:27;100942.41;;;22.22;75.70
3082;BME280;1551;51.046;7.010;2022-08-01T04:10:16;100942.31;;;22.24;76.90
3082;BME280;1551;51.046;7.010;2022-08-01T04:13:05;100945.50;;;22.44;76.21
3082;BME280;1551;51.046;7.010;2022-08-01T04:15:54;100940.97;;;22.48;75.26
3082;BME280;1551;51.046;7.010;2022-08-01T04:18:43;100947.59;;;22.53;74.95
3082;BME280;1551;51.046;7.010;2022-08-01T04:21:34;100950.16;;;22.55;75.50
3082;BME280;1551;51.046;7.010;2022-08-01T04:24:24;100939.13;;;22.66;74.65
3082;BME280;1551;51.046;7.010;2022-08-01T04:27:17;100949.47;;;22.51;74.36
3082;BME280;1551;51.046;7.010;2022-08-01T04:30:08;100946.13;;;22.34;75.98
3082;BME280;1551;51.046;7.010;2022-08-01T04:33:00;100959.16;;;22.49;75.81
3082;BME280;1551;51.046;7.010;2022-08-01T04:35:50;100960.84;;;22.50;75.13
3082;BME280;1551;51.046;7.010;2022-08-01T04:38:45;100965.13;;;22.36;75.26
3082;BME280;1551;51.046;7.010;2022-08-01T04:41:36;100968.03;;;22.30;76.38
3082;BME280;1551;51.046;7.010;2022-08-01T04:44:25;100957.47;;;22.33;76.19
3082;BME280;1551;51.046;7.010;2022-08-01T04:47:16;100974.16;;;22.46;76.09
3082;BME280;1551;51.046;7.010;2022-08-01T04:50:06;100970.19;;;22.54;75.73
3082;BME280;1551;51.046;7.010;2022-08-01T04:52:56;100976.81;;;22.44;75.61
3082;BME280;1551;51.046;7.010;2022-08-01T04:55:45;100993.31;;;22.45;75.92
3082;BME280;1551;51.046;7.010;2022-08-01T04:58:34;100985.25;;;22.49;76.33
3082;BME280;1551;51.046;7.010;2022-08-01T05:01:23;100981.63;;;22.52;76.10
3082;BME280;1551;51.046;7.010;2022-08-01T05:04:12;100985.53;;;22.61;75.34
3082;BME280;1551;51.046;7.010;2022-08-01T05:07:02;100990.72;;;22.61;75.44
3082;BME280;1551;51.046;7.010;2022-08-01T05:09:51;100982.78;;;22.93;74.44
3082;BME280;1551;51.046;7.010;2022-08-01T05:12:40;100983.16;;;23.17;72.59
3082;BME280;1551;51.046;7.010;2022-08-01T05:15:29;101001.66;;;23.28;71.48
3082;BME280;1551;51.046;7.010;2022-08-01T05:18:19;100989.81;;;23.22;71.73
3082;BME280;1551;51.046;7.010;2022-08-01T05:21:08;100988.94;;;23.08;71.54
3082;BME280;1551;51.046;7.010;2022-08-01T05:23:57;100983.13;;;22.56;73.49
3082;BME280;1551;51.046;7.010;2022-08-01T05:26:46;100987.97;;;22.64;74.85
3082;BME280;1551;51.046;7.010;2022-08-01T05:29:37;100992.50;;;22.76;73.94
3082;BME280;1551;51.046;7.010;2022-08-01T05:32:27;100995.38;;;22.71;74.67
3082;BME280;1551;51.046;7.010;2022-08-01T05:35:18;101005.63;;;22.74;73.72
3082;BME280;1551;51.046;7.010;2022-08-01T05:38:07;100998.28;;;22.49;74.42
3082;BME280;1551;51.046;7.010;2022-08-01T05:40:56;101006.88;;;22.51;75.01
3082;BME280;1551;51.046;7.010;2022-08-01T05:43:45;101009.47;;;22.51;74.49
3082;BME280;1551;51.046;7.010;2022-08-01T05:46:35;101012.09;;;22.51;75.02
3082;BME280;1551;51.046;7.010;2022-08-01T05:49:24;101009.50;;;22.67;75.36
3082;BME280;1551;51.046;7.010;2022-08-01T05:52:13;101016.09;;;22.90;73.55
3082;BME280;1551;51.046;7.010;2022-08-01T05:55:03;101015.13;;;22.91;73.27
3082;BME280;1551;51.046;7.010;2022-08-01T05:57:53;101006.81;;;22.84;73.32
3082;BME280;1551;51.046;7.010;2022-08-01T06:00:42;101012.25;;;22.95;73.21
3082;BME280;1551;51.046;7.010;2022-08-01T06:03:31;101007.81;;;22.97;72.89
3082;BME280;1551;51.046;7.010;2022-08-01T06:06:22;101012.59;;;23.05;72.57
3082;BME280;1551;51.046;7.010;2022-08-01T06:09:11;101012.78;;;23.02;72.69
3082;BME280;1551;51.046;7.010;2022-08-01T06:12:00;101006.88;;;22.98;73.52
3082;BME280;1551;51.046;7.010;2022-08-01T06:14:49;101004.06;;;23.17;73.30
3082;BME280;1551;51.046;7.010;2022-08-01T06:17:37;101021.63;;;23.45;71.87
3082;BME280;1551;51.046;7.010;2022-08-01T06:20:27;101012.69;;;23.33;72.11
3082;BME280;1551;51.046;7.010;2022-08-01T06:23:17;101015.38;;;23.47;71.60
3082;BME280;1551;51.046;7.010;2022-08-01T06:26:06;101014.56;;;23.47;71.25
3082;BME280;1551;51.046;7.010;2022-08-01T06:28:55;101007.25;;;23.38;71.47
3082;BME280;1551;51.046;7.010;2022-08-01T06:31:44;101018.00;;;23.47;71.73
3082;BME280;1551;51.046;7.010;2022-08-01T06:34:33;101022.66;;;23.42;71.40
3082;BME280;1551;51.046;7.010;2022-08-01T06:37:22;101026.78;;;23.46;71.67
3082;BME280;1551;51.046;7.010;2022-08-01T06:40:12;101011.69;;;23.51;71.06
3082;BME280;1551;51.046;7.010;2022-08-01T06:43:01;101016.78;;;23.82;69.47
3082;BME280;1551;51.046;7.010;2022-08-01T06:45:49;101030.28;;;24.19;68.53
3082;BME280;1551;51.046;7.010;2022-08-01T06:48:38;101016.81;;;24.39;67.70
3082;BME280;1551;51.046;7.010;2022-08-01T06:51:28;101015.28;;;24.63;66.32
3082;BME280;1551;51.046;7.010;2022-08-01T06:54:17;101015.22;;;24.50;66.42
3082;BME280;1551;51.046;7.010;2022-08-01T06:57:06;101009.41;;;24.45;67.34
3082;BME280;1551;51.046;7.010;2022-08-01T06:59:55;100996.34;;;24.31;66.37
3082;BME280;1551;51.046;7.010;2022-08-01T07:02:44;101007.28;;;24.38;67.44
3082;BME280;1551;51.046;7.010;2022-08-01T07:05:34;101014.66;;;24.31;66.68
3082;BME280;1551;51.046;7.010;2022-08-01T07:08:23;101023.34;;;24.32;66.89
3082;BME280;1551;51.046;7.010;2022-08-01T07:11:12;101014.41;;;24.08;67.13
3082;BME280;1551;51.046;7.010;2022-08-01T07:14:01;101017.66;;;24.11;67.60
3082;BME280;1551;51.046;7.010;2022-08-01T07:16:50;101009.66;;;24.14;67.02
3082;BME280;1551;51.046;7.010;2022-08-01T07:19:39;101021.84;;;24.00;67.52
3082;BME280;1551;51.046;7.010;2022-08-01T07:22:28;101022.63;;;24.16;67.17
3082;BME280;1551;51.046;7.010;2022-08-01T07:25:17;101021.13;;;24.26;66.84
3082;BME280;1551;51.046;7.010;2022-08-01T07:28:06;101027.69;;;24.19;66.39
3082;BME280;1551;51.046;7.010;2022-08-01T07:30:55;101013.16;;;23.99;66.50
3082;BME280;1551;51.046;7.010;2022-08-01T07:33:45;101012.25;;;24.28;66.50
3082;BME280;1551;51.046;7.010;2022-08-01T07:36:34;101019.63;;;24.50;66.28
3082;BME280;1551;51.046;7.010;2022-08-01T07:39:23;101014.34;;;24.78;65.10
3082;BME280;1551;51.046;7.010;2022-08-01T07:42:12;101017.16;;;25.02;63.77
3082;BME280;1551;51.046;7.010;2022-08-01T07:45:01;101032.25;;;25.38;62.89
3082;BME280;1551;51.046;7.010;2022-08-01T07:47:50;101038.16;;;25.14;62.66
3082;BME280;1551;51.046;7.010;2022-08-01T07:50:38;101038.47;;;25.10;63.06
3082;BME280;1551;51.046;7.010;2022-08-01T07:53:27;101026.75;;;25.15;62.39
3082;BME280;1551;51.046;7.010;2022-08-01T07:56:17;101040.13;;;25.38;61.75
3082;BME280;1551;51.046;7.010;2022-08-01T07:59:06;101039.34;;;25.23;62.57
3082;BME280;1551;51.046;7.010;2022-08-01T08:01:55;101036.88;;;25.07;61.81
3082;BME280;1551;51.046;7.010;2022-08-01T08:04:44;101038.94;;;24.76;62.97
3082;BME280;1551;51.046;7.010;2022-08-01T08:07:33;101038.38;;;24.71;63.13
3082;BME280;1551;51.046;7.010;2022-08-01T08:10:22;101034.63;;;24.75;63.52
3082;BME280;1551;51.046;7.010;2022-08-01T08:13:11;101032.44;;;25.22;62.19
3082;BME280;1551;51.046;7.010;2022-08-01T08:16:00;101046.63;;;25.84;60.31
3082;BME280;1551;51.046;7.010;2022-08-01T08:18:49;101034.38;;;26.35;59.07
3082;BME280;1551;51.046;7.010;2022-08-01T08:21:38;101038.13;;;26.56;57.08
3082;BME280;1551;51.046;7.010;2022-08-01T08:24:27;101042.06;;;26.61;56.27
3082;BME280;1551;51.046;7.010;2022-08-01T08:27:16;101042.34;;;26.82;56.67
3082;BME280;1551;51.046;7.010;2022-08-01T08:30:06;101043.66;;;26.64;55.86
3082;BME280;1551;51.046;7.010;2022-08-01T08:32:59;101039.19;;;26.41;55.94
3082;BME280;1551;51.046;7.010;2022-08-01T08:35:48;101047.19;;;26.02;57.68
3082;BME280;1551;51.046;7.010;2022-08-01T08:38:38;101047.19;;;26.14;57.89
3082;BME280;1551;51.046;7.010;2022-08-01T08:41:29;101059.06;;;26.20;57.25
3082;BME280;1551;51.046;7.010;2022-08-01T08:44:18;101057.25;;;25.95;57.21
3082;BME280;1551;51.046;7.010;2022-08-01T08:47:11;101059.44;;;25.76;58.06
3082;BME280;1551;51.046;7.010;2022-08-01T08:50:00;101057.03;;;25.98;57.65
3082;BME280;1551;51.046;7.010;2022-08-01T08:52:52;101061.75;;;26.06;57.63
3082;BME280;1551;51.046;7.010;2022-08-01T08:55:43;101058.31;;;26.18;57.11
3082;BME280;1551;51.046;7.010;2022-08-01T08:58:34;101063.56;;;26.18;56.99
3082;BME280;1551;51.046;7.010;2022-08-01T09:01:26;101047.78;;;26.05;57.12
3082;BME280;1551;51.046;7.010;2022-08-01T09:04:15;101055.47;;;26.08;57.36
3082;BME280;1551;51.046;7.010;2022-08-01T09:07:04;101055.00;;;26.65;56.41
3082;BME280;1551;51.046;7.010;2022-08-01T09:09:54;101061.41;;;27.09;55.40
3082;BME280;1551;51.046;7.010;2022-08-01T09:13:03;101068.59;;;26.95;54.79
3082;BME280;1551;51.046;7.010;2022-08-01T09:15:54;101072.78;;;26.48;55.43
3082;BME280;1551;51.046;7.010;2022-08-01T09:18:43;101071.44;;;26.30;55.43
3082;BME280;1551;51.046;7.010;2022-08-01T09:21:33;101063.78;;;26.15;55.37
3082;BME280;1551;51.046;7.010;2022-08-01T09:24:27;101081.50;;;26.24;54.30
3082;BME280;1551;51.046;7.010;2022-08-01T09:27:21;101069.97;;;26.26;54.49
3082;BME280;1551;51.046;7.010;2022-08-01T09:30:15;101082.03;;;26.41;54.93
3082;BME280;1551;51.046;7.010;2022-08-01T09:33:05;101080.94;;;26.56;54.55
3082;BME280;1551;51.046;7.010;2022-08-01T09:35:55;101082.88;;;26.42;53.80
3082;BME280;1551;51.046;7.010;2022-08-01T09:38:45;101086.97;;;26.46;54.05
3082;BME280;1551;51.046;7.010;2022-08-01T09:41:34;101075.19;;;26.51;53.40
3082;BME280;1551;51.046;7.010;2022-08-01T09:44:41;101074.75;;;26.57;53.46
3082;BME280;1551;51.046;7.010;2022-08-01T09:47:38;101078.56;;;27.02;53.32
3082;BME280;1551;51.046;7.010;2022-08-01T09:50:38;101079.16;;;27.88;51.08
3082;BME280;1551;51.046;7.010;2022-08-01T09:53:39;101081.69;;;27.89;50.80
3082;BME280;1551;51.046;7.010;2022-08-01T09:56:35;101064.59;;;27.49;51.12
3082;BME280;1551;51.046;7.010;2022-08-01T09:59:34;101077.25;;;27.32;51.51
3082;BME280;1551;51.046;7.010;2022-08-01T10:05:30;101081.16;;;27.39;51.90
3082;BME280;1551;51.046;7.010;2022-08-01T10:08:20;101089.25;;;27.59;51.46
3082;BME280;1551;51.046;7.010;2022-08-01T10:11:12;101078.97;;;27.56;51.21
3082;BME280;1551;51.046;7.010;2022-08-01T10:14:02;101067.53;;;27.21;52.05
3082;BME280;1551;51.046;7.010;2022-08-01T10:16:53;101083.38;;;27.32;51.68
3082;BME280;1551;51.046;7.010;2022-08-01T10:19:44;101076.53;;;27.29;51.79
3082;BME280;1551;51.046;7.010;2022-08-01T10:22:34;101087.13;;;27.17;51.72
3082;BME280;1551;51.046;7.010;2022-08-01T10:25:26;101069.28;;;27.09;51.66
3082;BME280;1551;51.046;7.010;2022-08-01T10:28:18;101074.94;;;27.40;51.50
3082;BME280;1551;51.046;7.010;2022-08-01T10:31:09;101075.56;;;27.78;50.11
3082;BME280;1551;51.046;7.010;2022-08-01T10:33:58;101067.72;;;28.00;49.75
3082;BME280;1551;51.046;7.010;2022-08-01T10:36:48;101079.81;;;28.03;49.40
3082;BME280;1551;51.046;7.010;2022-08-01T10:39:39;101084.06;;;28.72;47.67
3082;BME280;1551;51.046;7.010;2022-08-01T10:42:28;101075.44;;;29.55;44.64
3082;BME280;1551;51.046;7.010;2022-08-01T10:45:18;101072.19;;;29.31;45.48
3082;BME280;1551;51.046;7.010;2022-08-01T10:48:16;101071.56;;;29.39;45.16
3082;BME280;1551;51.046;7.010;2022-08-01T10:51:07;101068.44;;;29.34;45.53
3082;BME280;1551;51.046;7.010;2022-08-01T10:53:56;101060.84;;;29.40;45.48
3082;BME280;1551;51.046;7.010;2022-08-01T10:56:48;101064.13;;;30.06;43.88
3082;BME280;1551;51.046;7.010;2022-08-01T10:59:51;101063.94;;;30.58;43.18
3082;BME280;1551;51.046;7.010;2022-08-01T11:02:40;101064.44;;;30.12;42.76
3082;BME280;1551;51.046;7.010;2022-08-01T11:05:34;101065.81;;;29.86;42.62
3082;BME280;1551;51.046;7.010;2022-08-01T11:08:24;101066.75;;;29.64;42.67
3082;BME280;1551;51.046;7.010;2022-08-01T11:11:14;101062.56;;;29.41;43.31
3082;BME280;1551;51.046;7.010;2022-08-01T11:14:04;101052.78;;;29.53;43.73
3082;BME280;1551;51.046;7.010;2022-08-01T11:20:24;101055.22;;;30.07;42.45
3082;BME280;1551;51.046;7.010;2022-08-01T11:23:16;101041.88;;;29.14;44.00
3082;BME280;1551;51.046;7.010;2022-08-01T11:26:07;101054.94;;;28.40;45.92
3082;BME280;1551;51.046;7.010;2022-08-01T11:29:12;101059.47;;;28.05;47.06
3082;BME280;1551;51.046;7.010;2022-08-01T11:32:24;101063.19;;;28.02;47.25
3082;BME280;1551;51.046;7.010;2022-08-01T11:35:14;101048.47;;;28.77;45.71
3082;BME280;1551;51.046;7.010;2022-08-01T11:44:18;101054.16;;;31.84;39.34
3082;BME280;1551;51.046;7.010;2022-08-01T11:47:08;101048.81;;;32.13;38.95
3082;BME280;1551;51.046;7.010;2022-08-01T11:49:58;101049.78;;;33.03;37.45
3082;BME280;1551;51.046;7.010;2022-08-01T11:52:57;101041.13;;;33.19;36.79
3082;BME280;1551;51.046;7.010;2022-08-01T11:55:51;101053.72;;;32.72;37.25
3082;BME280;1551;51.046;7.010;2022-08-01T11:58:40;101043.53;;;30.70;39.78
3082;BME280;1551;51.046;7.010;2022-08-01T12:01:29;101039.59;;;29.53;42.13
3082;BME280;1551;51.046;7.010;2022-08-01T12:04:19;101031.19;;;28.95;43.75
3082;BME280;1551;51.046;7.010;2022-08-01T12:07:12;101039.88;;;28.53;45.02
3082;BME280;1551;51.046;7.010;2022-08-01T12:10:10;101043.09;;;28.79;44.25
3082;BME280;1551;51.046;7.010;2022-08-01T12:13:01;101050.25;;;30.13;41.45
3082;BME280;1551;51.046;7.010;2022-08-01T12:15:51;101048.63;;;30.52;40.29
3082;BME280;1551;51.046;7.010;2022-08-01T12:18:41;101045.84;;;31.22;39.22
3082;BME280;1551;51.046;7.010;2022-08-01T12:21:30;101037.91;;;31.03;38.96
3082;BME280;1551;51.046;7.010;2022-08-01T12:24:22;101049.47;;;31.11;39.08
3082;BME280;1551;51.046;7.010;2022-08-01T12:27:23;101041.09;;;31.25;38.32
3082;BME280;1551;51.046;7.010;2022-08-01T12:30:19;101048.94;;;31.56;38.37
3082;BME280;1551;51.046;7.010;2022-08-01T12:33:17;101061.31;;;31.74;37.39
3082;BME280;1551;51.046;7.010;2022-08-01T12:36:06;101060.03;;;31.78;37.07
3082;BME280;1551;51.046;7.010;2022-08-01T12:38:55;101056.69;;;31.76;37.89
3082;BME280;1551;51.046;7.010;2022-08-01T12:41:46;101046.53;;;31.72;37.56
3082;BME280;1551;51.046;7.010;2022-08-01T12:44:35;101053.78;;;31.22;38.30
3082;BME280;1551;51.046;7.010;2022-08-01T12:47:24;101043.22;;;31.12;38.37
3082;BME280;1551;51.046;7.010;2022-08-01T12:50:20;101042.38;;;31.31;38.43
3082;BME280;1551;51.046;7.010;2022-08-01T12:53:10;101047.00;;;31.48;37.54
3082;BME280;1551;51.046;7.010;2022-08-01T12:55:59;101037.97;;;30.73;38.67
3082;BME280;1551;51.046;7.010;2022-08-01T12:58:48;101037.13;;;30.02;39.88
3082;BME280;1551;51.046;7.010;2022-08-01T13:01:37;101034.28;;;29.73;40.09
3082;BME280;1551;51.046;7.010;2022-08-01T13:04:28;101037.72;;;30.06;40.12
3082;BME280;1551;51.046;7.010;2022-08-01T13:07:17;101048.13;;;30.68;39.02
3082;BME280;1551;51.046;7.010;2022-08-01T13:10:07;101036.00;;;30.65;38.00
3082;BME280;1551;51.046;7.010;2022-08-01T13:12:58;101030.38;;;30.39;37.45
3082;BME280;1551;51.046;7.010;2022-08-01T13:15:47;101032.59;;;30.93;36.94
3082;BME280;1551;51.046;7.010;2022-08-01T13:18:36;101042.91;;;30.47;36.46
3082;BME280;1551;51.046;7.010;2022-08-01T13:21:27;101041.47;;;29.82;37.94
3082;BME280;1551;51.046;7.010;2022-08-01T13:24:26;101039.66;;;29.62;38.70
3082;BME280;1551;51.046;7.010;2022-08-01T13:27:21;101030.75;;;29.43;37.94
3082;BME280;1551;51.046;7.010;2022-08-01T13:30:19;101037.78;;;29.33;39.79
3082;BME280;1551;51.046;7.010;2022-08-01T13:33:08;101035.00;;;29.34;39.64
3082;BME280;1551;51.046;7.010;2022-08-01T13:35:57;101035.06;;;29.12;40.51
3082;BME280;1551;51.046;7.010;2022-08-01T13:38:46;101034.09;;;29.76;39.98
3082;BME280;1551;51.046;7.010;2022-08-01T13:41:54;101039.78;;;30.02;39.35
3082;BME280;1551;51.046;7.010;2022-08-01T13:44:43;101039.00;;;30.41;38.28
3082;BME280;1551;51.046;7.010;2022-08-01T13:47:36;101041.16;;;30.57;37.90
3082;BME280;1551;51.046;7.010;2022-08-01T13:50:24;101034.47;;;30.63;37.31
3082;BME280;1551;51.046;7.010;2022-08-01T13:53:13;101038.75;;;30.44;37.13
3082;BME280;1551;51.046;7.010;2022-08-01T13:56:03;101043.63;;;30.19;38.09
3082;BME280;1551;51.046;7.010;2022-08-01T13:58:52;101035.78;;;29.66;38.23
3082;BME280;1551;51.046;7.010;2022-08-01T14:01:41;101037.25;;;29.39;39.24
3082;BME280;1551;51.046;7.010;2022-08-01T14:04:30;101037.31;;;29.27;39.70
3082;BME280;1551;51.046;7.010;2022-08-01T14:07:20;101031.66;;;29.32;39.56
3082;BME280;1551;51.046;7.010;2022-08-01T14:10:09;101038.81;;;29.41;38.24
3082;BME280;1551;51.046;7.010;2022-08-01T14:12:58;101033.78;;;29.38;39.00
3082;BME280;1551;51.046;7.010;2022-08-01T14:15:47;101030.91;;;29.62;37.95
3082;BME280;1551;51.046;7.010;2022-08-01T14:18:36;101036.31;;;29.60;38.26
3082;BME280;1551;51.046;7.010;2022-08-01T14:21:25;101034.13;;;29.65;39.34
3082;BME280;1551;51.046;7.010;2022-08-01T14:24:14;101039.84;;;29.50;39.25
3082;BME280;1551;51.046;7.010;2022-08-01T14:27:03;101028.25;;;29.41;39.36
3082;BME280;1551;51.046;7.010;2022-08-01T14:29:52;101038.66;;;29.43;40.82
3082;BME280;1551;51.046;7.010;2022-08-01T14:32:41;101030.88;;;29.20;41.84
3082;BME280;1551;51.046;7.010;2022-08-01T14:35:30;101035.72;;;29.36;41.75
3082;BME280;1551;51.046;7.010;2022-08-01T14:38:18;101025.63;;;29.09;42.04
3082;BME280;1551;51.046;7.010;2022-08-01T14:41:07;101025.53;;;29.32;41.58
3082;BME280;1551;51.046;7.010;2022-08-01T14:43:57;101017.69;;;29.20;41.23
3082;BME280;1551;51.046;7.010;2022-08-01T14:46:46;101022.97;;;29.41;41.65
3082;BME280;1551;51.046;7.010;2022-08-01T14:49:36;101024.50;;;29.23;41.39
3082;BME280;1551;51.046;7.010;2022-08-01T14:52:25;101032.22;;;29.36;40.85
3082;BME280;1551;51.046;7.010;2022-08-01T14:55:14;101027.88;;;29.46;40.74
3082;BME280;1551;51.046;7.010;2022-08-01T14:58:03;101032.06;;;29.48;40.95
3082;BME280;1551;51.046;7.010;2022-08-01T15:00:52;101034.56;;;29.50;39.87
3082;BME280;1551;51.046;7.010;2022-08-01T15:03:43;101031.41;;;29.35;40.18
3082;BME280;1551;51.046;7.010;2022-08-01T15:06:32;101040.53;;;29.31;40.66
3082;BME280;1551;51.046;7.010;2022-08-01T15:09:20;101045.94;;;29.30;40.81
3082;BME280;1551;51.046;7.010;2022-08-01T15:12:12;101037.94;;;29.20;41.41
3082;BME280;1551;51.046;7.010;2022-08-01T15:15:01;101035.50;;;29.17;42.23
3082;BME280;1551;51.046;7.010;2022-08-01T15:17:50;101031.88;;;28.97;43.03
3082;BME280;1551;51.046;7.010;2022-08-01T15:20:41;101037.69;;;29.12;43.04
3082;BME280;1551;51.046;7.010;2022-08-01T15:23:30;101038.06;;;29.07;43.18
3082;BME280;1551;51.046;7.010;2022-08-01T15:26:19;101039.44;;;29.02;43.30
3082;BME280;1551;51.046;7.010;2022-08-01T15:29:08;101049.41;;;28.87;43.86